Time;durP1;ratioP1;P1;durP2;ratioP2;P2;SDS_P1;SDS_P2;PMS_P1;PMS_P2;Temp;Humidity;BMP_temperature;BMP_pressure;BME280_temperature;BME280_humidity;BME280_pressure;Samples;Min_cycle;Max_cycle;Signal;HPM_P1;HPM_P2
2021/04/02 00:01:12;;;;;;;24.30;11.03;;;0.60;99.90;;;;;;5169925;28;20202;-74
2021/04/02 00:03:43;;;;;;;16.87;10.57;;;0.60;99.90;;;;;;5169623;28;20577;-73
2021/04/02 00:06:15;;;;;;;18.87;10.00;;;0.60;99.90;;;;;;5169819;28;20198;-80
2021/04/02 00:08:46;;;;;;;19.50;10.37;;;0.50;99.90;;;;;;5170369;28;20191;-76
2021/04/02 00:11:18;;;;;;;21.40;10.10;;;0.50;99.90;;;;;;5168447;28;20195;-71
2021/04/02 00:13:49;;;;;;;18.23;10.10;;;0.50;99.90;;;;;;5170182;28;20639;-73
2021/04/02 00:16:21;;;;;;;18.23;10.43;;;0.50;99.90;;;;;;5153822;28;20188;-72
2021/04/02 00:18:52;;;;;;;17.93;10.53;;;0.40;99.90;;;;;;5171126;28;20298;-77
2021/04/02 00:21:23;;;;;;;17.60;10.13;;;0.40;99.90;;;;;;5169660;28;20199;-77
2021/04/02 00:23:55;;;;;;;19.57;9.30;;;0.40;99.90;;;;;;5170141;28;20708;-75
2021/04/02 00:26:26;;;;;;;15.23;8.33;;;0.40;99.90;;;;;;5170394;28;20276;-78
2021/04/02 00:28:58;;;;;;;14.63;8.60;;;0.30;99.90;;;;;;5169184;28;20235;-77
2021/04/02 00:31:29;;;;;;;17.50;8.33;;;0.30;99.90;;;;;;5168942;28;20228;-73
2021/04/02 00:34:02;;;;;;;15.93;8.77;;;0.20;99.90;;;;;;5169409;28;20198;-77
2021/04/02 00:36:34;;;;;;;15.93;9.03;;;0.20;99.90;;;;;;5172290;28;20204;-74
2021/04/02 00:39:05;;;;;;;13.77;7.73;;;0.20;99.90;;;;;;5180086;28;20196;-74
2021/04/02 00:41:37;;;;;;;13.40;7.43;;;0.10;99.90;;;;;;5175854;28;20638;-75
2021/04/02 00:44:08;;;;;;;13.33;7.50;;;0.10;99.90;;;;;;5171477;28;20200;-78
2021/04/02 00:46:39;;;;;;;12.20;7.40;;;0.00;99.90;;;;;;5171142;28;20681;-80
2021/04/02 00:49:11;;;;;;;12.77;7.97;;;0.00;99.90;;;;;;5169253;28;20565;-75
2021/04/02 00:51:42;;;;;;;14.23;7.43;;;0.00;99.90;;;;;;5169413;28;20192;-75
2021/04/02 00:54:14;;;;;;;14.33;8.40;;;0.00;99.90;;;;;;5168853;28;20206;-73
2021/04/02 00:56:45;;;;;;;17.13;8.67;;;-0.10;99.90;;;;;;5169318;28;20192;-74
2021/04/02 00:59:17;;;;;;;15.00;8.83;;;-0.10;99.90;;;;;;5168653;28;20192;-74
2021/04/02 01:01:50;;;;;;;13.93;7.97;;;-0.10;99.90;;;;;;5169221;28;20621;-76
2021/04/02 01:04:21;;;;;;;11.53;7.30;;;-0.10;99.90;;;;;;5169235;28;20199;-75
2021/04/02 01:06:53;;;;;;;12.77;8.10;;;-0.10;99.90;;;;;;5169267;28;20199;-75
2021/04/02 01:09:24;;;;;;;11.80;7.67;;;-0.20;99.90;;;;;;5169911;28;20204;-76
2021/04/02 01:11:56;;;;;;;13.10;7.60;;;-0.20;99.90;;;;;;5170444;28;20627;-75
2021/04/02 01:14:30;;;;;;;14.20;7.70;;;-0.20;99.90;;;;;;5170933;28;20658;-74
2021/04/02 01:17:01;;;;;;;16.17;7.57;;;-0.20;99.90;;;;;;5169142;28;20192;-74
2021/04/02 01:23:42;;;;;;;19.57;9.50;;;-0.10;99.90;;;;;;5168243;28;20265;-72
2021/04/02 01:26:47;;;;;;;16.20;9.53;;;-0.10;99.90;;;;;;5168095;28;20550;-73
2021/04/02 01:29:47;;;;;;;17.97;9.13;;;0.00;99.90;;;;;;5167637;28;20235;-75
2021/04/02 01:32:24;;;;;;;20.40;9.57;;;0.00;99.90;;;;;;5167032;28;20192;-74
2021/04/02 01:35:18;;;;;;;18.53;9.33;;;0.10;99.90;;;;;;5168074;28;20237;-75
2021/04/02 01:37:51;;;;;;;15.30;8.93;;;0.00;99.90;;;;;;5167899;28;20270;-76
2021/04/02 01:40:26;;;;;;;16.87;9.50;;;0.10;99.90;;;;;;5167839;28;20251;-72
2021/04/02 01:43:02;;;;;;;14.67;8.90;;;0.10;99.90;;;;;;5167355;28;20234;-75
2021/04/02 01:45:35;;;;;;;18.83;9.10;;;0.10;99.90;;;;;;5167785;28;20187;-74
2021/04/02 01:48:07;;;;;;;17.53;8.70;;;0.10;99.90;;;;;;5167615;28;20570;-74
2021/04/02 01:50:43;;;;;;;16.97;9.17;;;0.10;99.90;;;;;;5167846;28;20299;-76
2021/04/02 01:53:17;;;;;;;14.13;8.40;;;0.10;99.90;;;;;;5167715;28;20195;-74
2021/04/02 01:55:51;;;;;;;14.80;8.00;;;0.10;99.90;;;;;;5167776;28;20282;-73
2021/04/02 01:58:23;;;;;;;17.50;9.37;;;0.10;99.90;;;;;;5167042;28;20286;-74
2021/04/02 02:00:58;;;;;;;16.03;9.03;;;0.10;99.90;;;;;;5167511;28;20588;-74
2021/04/02 02:03:30;;;;;;;16.90;8.23;;;0.10;99.90;;;;;;5167022;28;20223;-77
2021/04/02 02:06:04;;;;;;;15.07;7.90;;;0.10;99.90;;;;;;5167605;28;20653;-78
2021/04/02 02:08:37;;;;;;;19.30;9.00;;;0.10;99.90;;;;;;5150137;28;20637;-73
2021/04/02 02:11:12;;;;;;;14.90;8.37;;;0.10;99.90;;;;;;5167282;28;20647;-75
2021/04/02 02:13:59;;;;;;;16.93;8.03;;;0.10;99.90;;;;;;5170401;28;20593;-74
2021/04/02 02:16:31;;;;;;;11.93;7.40;;;0.10;99.90;;;;;;5167388;28;20652;-74
2021/04/02 02:19:12;;;;;;;15.37;7.20;;;0.10;99.90;;;;;;5167190;28;20196;-74
2021/04/02 02:21:49;;;;;;;11.10;6.80;;;0.10;99.90;;;;;;5165973;28;20223;-74
2021/04/02 02:24:22;;;;;;;12.63;6.23;;;0.10;99.90;;;;;;5150197;28;20675;-77
2021/04/02 02:26:53;;;;;;;13.93;6.63;;;0.10;99.90;;;;;;5169179;28;20199;-77
2021/04/02 02:29:26;;;;;;;13.17;6.57;;;0.00;99.90;;;;;;5167026;28;20246;-73
2021/04/02 02:31:58;;;;;;;10.03;6.27;;;0.00;99.90;;;;;;5168566;28;20196;-75
2021/04/02 02:34:30;;;;;;;11.10;6.60;;;0.10;99.90;;;;;;5177409;28;20259;-81
2021/04/02 02:37:02;;;;;;;9.67;6.33;;;0.00;99.90;;;;;;5169221;28;20199;-74
2021/04/02 02:39:34;;;;;;;12.03;6.60;;;0.00;99.90;;;;;;5169232;28;20191;-78
2021/04/02 02:42:06;;;;;;;11.30;6.63;;;0.00;99.90;;;;;;5169865;28;20201;-78
2021/04/02 02:44:37;;;;;;;12.37;7.10;;;0.00;99.90;;;;;;5171046;28;20195;-81
2021/04/02 02:47:09;;;;;;;11.73;6.83;;;0.10;99.90;;;;;;5169349;28;20537;-76
2021/04/02 02:49:42;;;;;;;11.43;6.97;;;0.10;99.90;;;;;;5168898;28;20202;-74
2021/04/02 02:52:14;;;;;;;14.00;7.73;;;0.10;99.90;;;;;;5167799;28;20259;-76
2021/04/02 02:54:46;;;;;;;12.33;7.27;;;0.20;99.90;;;;;;5168468;28;20282;-76
2021/04/02 02:57:19;;;;;;;13.10;6.97;;;0.10;99.90;;;;;;5166646;28;20206;-74
2021/04/02 02:59:52;;;;;;;12.40;7.57;;;0.10;99.90;;;;;;5168311;28;20198;-75
2021/04/02 03:02:25;;;;;;;13.27;7.03;;;0.10;99.90;;;;;;5168480;28;20223;-75
2021/04/02 03:04:58;;;;;;;13.33;7.00;;;0.10;99.90;;;;;;5168195;28;20211;-76
2021/04/02 03:07:53;;;;;;;15.37;7.40;;;0.10;99.90;;;;;;5154319;28;20645;-74
2021/04/02 03:10:27;;;;;;;12.57;7.47;;;0.10;99.90;;;;;;5169242;28;20203;-76
2021/04/02 03:13:00;;;;;;;13.10;7.20;;;0.10;99.90;;;;;;5168688;28;20192;-76
2021/04/02 03:15:34;;;;;;;13.40;8.00;;;0.20;99.90;;;;;;5150840;28;20200;-76
2021/04/02 03:18:07;;;;;;;13.47;7.87;;;0.20;99.90;;;;;;5170205;28;20196;-74
2021/04/02 03:24:25;;;;;;;14.80;8.40;;;0.20;99.90;;;;;;5168439;28;20192;-79
2021/04/02 03:26:58;;;;;;;13.27;8.50;;;0.20;99.90;;;;;;5169979;28;20196;-76
2021/04/02 03:29:30;;;;;;;16.10;9.33;;;0.20;99.90;;;;;;5167861;28;20247;-74
2021/04/02 03:32:07;;;;;;;14.83;9.13;;;0.20;99.90;;;;;;5167209;28;20196;-75
2021/04/02 03:34:41;;;;;;;16.97;9.87;;;0.10;99.90;;;;;;5167519;28;20191;-76
2021/04/02 03:41:02;;;;;;;17.40;9.50;;;0.20;99.90;;;;;;5168299;28;20179;-75
2021/04/02 03:43:35;;;;;;;17.93;10.13;;;0.20;99.90;;;;;;5168578;28;20226;-74
2021/04/02 03:46:09;;;;;;;17.77;10.07;;;0.20;99.90;;;;;;5169310;28;20200;-74
2021/04/02 03:48:43;;;;;;;22.03;11.07;;;0.20;99.90;;;;;;5172212;28;20192;-74
2021/04/02 03:51:20;;;;;;;18.73;10.43;;;0.20;99.90;;;;;;5172921;28;20191;-73
2021/04/02 03:53:56;;;;;;;17.30;10.10;;;0.30;99.90;;;;;;5171396;28;20215;-75
2021/04/02 03:56:32;;;;;;;17.13;10.53;;;0.30;99.90;;;;;;5176009;28;20195;-73
2021/04/02 03:59:06;;;;;;;16.87;10.17;;;0.30;99.90;;;;;;5175888;28;20596;-73
2021/04/02 04:01:41;;;;;;;21.07;11.40;;;0.30;99.90;;;;;;5175898;28;20196;-74
2021/04/02 04:04:14;;;;;;;19.57;10.47;;;0.30;99.90;;;;;;5174333;28;20269;-75
2021/04/02 04:06:49;;;;;;;18.23;9.87;;;0.30;99.90;;;;;;5171696;28;20191;-73
2021/04/02 04:09:21;;;;;;;15.57;9.03;;;0.30;99.90;;;;;;5175078;28;20200;-73
2021/04/02 04:11:55;;;;;;;16.53;8.53;;;0.30;99.90;;;;;;5176278;28;20199;-73
2021/04/02 04:14:28;;;;;;;10.20;7.27;;;0.30;99.90;;;;;;5175035;28;20200;-74
2021/04/02 04:17:01;;;;;;;12.60;7.93;;;0.30;99.90;;;;;;5176087;28;20199;-74
2021/04/02 04:19:34;;;;;;;11.87;7.90;;;0.30;99.90;;;;;;5172190;28;20192;-76
2021/04/02 04:22:07;;;;;;;13.90;8.60;;;0.30;99.90;;;;;;5171113;28;20577;-75
2021/04/02 04:24:38;;;;;;;14.57;8.80;;;0.20;99.90;;;;;;5170663;28;20279;-75
2021/04/02 04:27:11;;;;;;;15.67;8.80;;;0.20;99.90;;;;;;5170913;28;20250;-76
2021/04/02 04:29:46;;;;;;;15.83;9.10;;;0.20;99.90;;;;;;5171111;28;20736;-83
2021/04/02 04:32:20;;;;;;;19.27;9.13;;;0.20;99.90;;;;;;5171318;28;20198;-79
2021/04/02 04:34:52;;;;;;;14.70;8.37;;;0.20;99.90;;;;;;5171238;28;20238;-84
2021/04/02 04:37:24;;;;;;;13.93;8.33;;;0.20;99.90;;;;;;5171157;28;20207;-76
2021/04/02 04:39:57;;;;;;;15.70;8.83;;;0.20;99.90;;;;;;5171640;28;20589;-79
2021/04/02 04:42:31;;;;;;;13.70;8.20;;;0.20;99.90;;;;;;5169889;28;20224;-76
2021/04/02 04:45:07;;;;;;;13.87;8.93;;;0.20;99.90;;;;;;5170122;28;20346;-75
2021/04/02 04:47:38;;;;;;;16.73;9.10;;;0.20;99.90;;;;;;5169702;28;20198;-81
2021/04/02 04:50:11;;;;;;;18.07;9.40;;;0.20;99.90;;;;;;5152365;28;20192;-81
2021/04/02 04:53:01;;;;;;;15.03;8.50;;;0.20;99.90;;;;;;5168488;28;20197;-75
2021/04/02 04:55:36;;;;;;;15.93;8.73;;;0.20;99.90;;;;;;5169211;28;20278;-78
2021/04/02 04:58:17;;;;;;;18.97;9.07;;;0.20;99.90;;;;;;5169352;28;20201;-79
2021/04/02 05:00:53;;;;;;;14.33;8.57;;;0.20;99.90;;;;;;5168598;28;20211;-81
2021/04/02 05:03:27;;;;;;;15.60;8.30;;;0.20;99.90;;;;;;5168603;28;20219;-78
2021/04/02 05:09:56;;;;;;;15.73;9.33;;;0.40;99.90;;;;;;5170891;28;20179;-74
2021/04/02 05:12:28;;;;;;;13.13;7.77;;;0.40;99.90;;;;;;5168531;28;20233;-76
2021/04/02 05:15:02;;;;;;;14.07;8.30;;;0.40;99.90;;;;;;5168102;28;20200;-78
2021/04/02 05:17:34;;;;;;;16.50;8.87;;;0.50;99.90;;;;;;5166803;28;20187;-74
2021/04/02 05:20:07;;;;;;;14.53;9.30;;;0.50;99.90;;;;;;5167964;28;20200;-76
2021/04/02 05:26:34;;;;;;;19.27;11.33;;;0.50;99.90;;;;;;5169345;28;20279;-76
2021/04/02 05:29:05;;;;;;;20.30;11.33;;;0.50;99.90;;;;;;5168217;28;20254;-74
2021/04/02 05:31:37;;;;;;;22.00;11.47;;;0.50;99.90;;;;;;5168694;28;20195;-74
2021/04/02 05:34:18;;;;;;;21.87;12.43;;;0.50;99.90;;;;;;5166941;28;20203;-74
2021/04/02 05:36:49;;;;;;;23.77;13.13;;;0.50;99.90;;;;;;5167629;28;20188;-75
2021/04/02 05:39:20;;;;;;;24.17;14.30;;;0.60;99.90;;;;;;5168033;28;20195;-73
2021/04/02 05:42:09;;;;;;;25.60;13.17;;;0.60;99.90;;;;;;5169087;28;20206;-74
2021/04/02 05:44:40;;;;;;;22.13;12.07;;;0.70;99.90;;;;;;5167952;28;20219;-72
2021/04/02 05:47:14;;;;;;;19.43;10.97;;;0.70;99.90;;;;;;5170221;28;20211;-73
2021/04/02 05:49:46;;;;;;;22.40;11.40;;;0.80;99.90;;;;;;5170359;28;20205;-74
2021/04/02 05:52:19;;;;;;;17.17;10.47;;;0.90;99.90;;;;;;5168211;28;20198;-77
2021/04/02 05:54:52;;;;;;;19.13;9.90;;;1.00;99.90;;;;;;5167291;28;20218;-75
2021/04/02 05:57:24;;;;;;;20.10;9.67;;;1.00;99.90;;;;;;5167220;28;20202;-76
2021/04/02 05:59:56;;;;;;;18.60;10.07;;;1.10;99.90;;;;;;5167672;28;20195;-77
2021/04/02 06:02:28;;;;;;;17.93;9.73;;;1.20;99.90;;;;;;5150061;28;20219;-75
2021/04/02 06:05:02;;;;;;;19.33;10.57;;;1.30;99.90;;;;;;5167401;28;20199;-74
2021/04/02 06:07:38;;;;;;;18.50;9.87;;;1.40;99.90;;;;;;5167733;28;20213;-77
2021/04/02 06:10:10;;;;;;;15.23;9.77;;;1.60;99.90;;;;;;5167567;28;20203;-74
2021/04/02 06:12:42;;;;;;;14.83;9.30;;;1.70;99.90;;;;;;5149856;28;20199;-74
2021/04/02 06:15:15;;;;;;;16.13;8.70;;;1.80;99.90;;;;;;5167270;28;20195;-75
2021/04/02 06:18:12;;;;;;;14.60;8.77;;;2.00;99.90;;;;;;5166437;28;20528;-74
2021/04/02 06:20:48;;;;;;;15.17;8.80;;;2.20;99.90;;;;;;5166832;28;20199;-77
2021/04/02 06:23:27;;;;;;;13.77;8.77;;;2.40;99.90;;;;;;5166361;28;20229;-73
2021/04/02 06:26:04;;;;;;;16.63;9.20;;;2.50;99.90;;;;;;5166892;28;20560;-73
2021/04/02 06:28:38;;;;;;;15.17;9.70;;;2.80;99.90;;;;;;5166570;28;20785;-75
2021/04/02 06:31:17;;;;;;;16.13;10.43;;;3.00;99.90;;;;;;5166513;28;20192;-76
2021/04/02 06:33:53;;;;;;;16.20;8.57;;;3.30;99.90;;;;;;5166563;28;20195;-76
2021/04/02 06:40:19;;;;;;;13.70;6.90;;;4.20;99.90;;;;;;5166360;28;20209;-78
2021/04/02 06:42:50;;;;;;;13.67;7.47;;;4.30;99.90;;;;;;5165539;28;20279;-72
2021/04/02 06:45:22;;;;;;;13.90;7.43;;;4.40;99.90;;;;;;5166565;28;20701;-74
2021/04/02 06:48:07;;;;;;;12.80;7.27;;;4.70;99.90;;;;;;5166577;28;20231;-77
2021/04/02 06:50:39;;;;;;;10.40;6.87;;;5.50;99.90;;;;;;5166599;28;20673;-78
2021/04/02 06:57:03;;;;;;;11.70;6.80;;;6.40;99.90;;;;;;5167378;28;20168;-77
2021/04/02 06:59:35;;;;;;;12.63;6.50;;;6.60;99.90;;;;;;5167806;28;20230;-79
2021/04/02 07:02:10;;;;;;;10.87;6.33;;;6.60;99.90;;;;;;5150061;28;20198;-77
2021/04/02 07:04:43;;;;;;;11.70;6.33;;;7.00;99.90;;;;;;5167024;28;20690;-79
2021/04/02 07:07:16;;;;;;;9.00;5.53;;;8.10;99.90;;;;;;5167329;28;20540;-76
2021/04/02 07:09:49;;;;;;;9.97;5.50;;;9.10;99.90;;;;;;5166527;28;20203;-76
2021/04/02 07:12:21;;;;;;;7.60;5.07;;;9.60;99.90;;;;;;5166556;28;20203;-73
2021/04/02 07:14:55;;;;;;;6.73;5.27;;;9.40;99.90;;;;;;5166630;28;20203;-76
2021/04/02 07:17:27;;;;;;;8.13;5.37;;;9.10;99.90;;;;;;5167186;28;20192;-73
2021/04/02 07:20:04;;;;;;;7.50;5.30;;;9.50;99.90;;;;;;5166299;28;20200;-72
2021/04/02 07:22:38;;;;;;;8.97;5.30;;;10.30;99.90;;;;;;5166720;28;20724;-75
2021/04/02 07:25:11;;;;;;;9.47;5.77;;;10.70;99.90;;;;;;5166449;28;20206;-75
2021/04/02 07:27:43;;;;;;;8.13;4.60;;;11.10;99.90;;;;;;5166108;28;20203;-75
2021/04/02 07:30:16;;;;;;;9.93;4.50;;;10.60;99.90;;;;;;5168929;28;20726;-81
2021/04/02 07:32:52;;;;;;;9.83;5.43;;;10.10;99.90;;;;;;5170575;28;20199;-76
2021/04/02 07:35:25;;;;;;;9.30;4.70;;;9.90;99.90;;;;;;5169757;28;20203;-77
2021/04/02 07:37:59;;;;;;;8.13;4.83;;;10.00;99.90;;;;;;5169947;28;20279;-76
2021/04/02 07:40:34;;;;;;;9.57;5.13;;;9.90;99.90;;;;;;5169845;28;20254;-73
2021/04/02 07:43:08;;;;;;;6.27;4.87;;;9.90;99.90;;;;;;5169746;28;20276;-72
2021/04/02 07:45:39;;;;;;;6.43;5.07;;;9.50;99.90;;;;;;5170073;28;20199;-73
2021/04/02 07:48:16;;;;;;;10.33;5.50;;;9.00;99.90;;;;;;5166411;28;20547;-70
2021/04/02 07:50:52;;;;;;;8.43;5.30;;;8.70;99.90;;;;;;5165014;28;20199;-74
2021/04/02 07:53:24;;;;;;;7.47;5.90;;;8.50;99.90;;;;;;5169602;28;20206;-76
2021/04/02 07:55:55;;;;;;;8.93;5.63;;;8.30;99.90;;;;;;5169742;28;20198;-75
2021/04/02 07:58:29;;;;;;;11.37;5.77;;;8.10;99.90;;;;;;5167662;28;20199;-74
2021/04/02 08:01:01;;;;;;;8.57;5.20;;;8.00;99.90;;;;;;5147939;28;20195;-73
2021/04/02 08:03:33;;;;;;;10.77;6.20;;;7.90;99.90;;;;;;5170059;28;20274;-74
2021/04/02 08:06:10;;;;;;;8.53;5.47;;;7.90;99.90;;;;;;5153104;28;20242;-73
2021/04/02 08:08:47;;;;;;;11.57;5.70;;;8.00;99.90;;;;;;5171532;28;20231;-75
2021/04/02 08:11:23;;;;;;;7.53;5.00;;;8.00;99.90;;;;;;5158633;28;20198;-75
2021/04/02 08:14:04;;;;;;;11.70;5.90;;;8.10;99.90;;;;;;5176717;28;20646;-77
2021/04/02 08:16:49;;;;;;;11.63;5.83;;;8.20;99.90;;;;;;5178830;28;20219;-76
2021/04/02 08:19:49;;;;;;;9.20;5.93;;;8.10;99.90;;;;;;5182682;28;20259;-76
2021/04/02 08:26:07;;;;;;;11.03;6.13;;;8.10;99.90;;;;;;5131394;28;20200;-79
2021/04/02 08:28:39;;;;;;;7.40;5.67;;;8.10;99.90;;;;;;5110516;29;20233;-75
2021/04/02 08:31:10;;;;;;;9.10;6.50;;;8.20;99.90;;;;;;5108684;29;20205;-76
2021/04/02 08:33:42;;;;;;;10.00;6.47;;;8.30;99.90;;;;;;5107983;29;20224;-77
2021/04/02 08:36:13;;;;;;;13.53;6.77;;;8.40;99.90;;;;;;5107371;29;20260;-77
2021/04/02 08:42:40;;;;;;;10.30;6.90;;;8.60;99.90;;;;;;5106633;29;20672;-76
2021/04/02 08:45:12;;;;;;;7.93;6.17;;;8.80;99.90;;;;;;5106608;29;20210;-75
2021/04/02 08:47:47;;;;;;;11.07;6.30;;;8.90;99.90;;;;;;5090865;29;20580;-76
2021/04/02 08:50:19;;;;;;;7.57;5.87;;;9.10;99.90;;;;;;5106334;29;20205;-75
2021/04/02 08:52:50;;;;;;;9.47;6.00;;;9.30;99.90;;;;;;5106434;29;20305;-77
2021/04/02 08:55:26;;;;;;;8.10;5.50;;;9.50;99.90;;;;;;5106269;29;20297;-74
2021/04/02 08:57:58;;;;;;;8.53;5.27;;;9.60;99.90;;;;;;5114544;28;20490;-75
2021/04/02 09:00:30;;;;;;;9.50;4.73;;;9.70;99.90;;;;;;5149470;28;20188;-76
2021/04/02 09:03:02;;;;;;;7.37;4.40;;;9.70;99.90;;;;;;5148035;28;20216;-75
2021/04/02 09:05:34;;;;;;;7.60;4.70;;;9.60;99.90;;;;;;5148216;28;20531;-76
2021/04/02 09:08:06;;;;;;;7.47;3.50;;;9.60;99.90;;;;;;5147919;28;20218;-65
2021/04/02 09:10:37;;;;;;;4.47;3.13;;;9.50;99.90;;;;;;5147724;28;20196;-60
2021/04/02 09:13:09;;;;;;;6.57;3.73;;;9.50;99.90;;;;;;5147458;28;20192;-71
2021/04/02 09:15:46;;;;;;;4.83;3.30;;;9.50;99.90;;;;;;5147644;28;20200;-71
2021/04/02 09:18:28;;;;;;;6.77;3.43;;;9.30;99.90;;;;;;5146320;28;20193;-73
2021/04/02 09:21:00;;;;;;;7.73;3.70;;;9.30;99.90;;;;;;5148693;28;20207;-78
2021/04/02 09:23:33;;;;;;;6.50;3.30;;;9.30;99.90;;;;;;5148047;28;20224;-73
2021/04/02 09:26:08;;;;;;;7.10;3.10;;;9.40;99.90;;;;;;5130694;28;20216;-73
2021/04/02 09:28:40;;;;;;;4.00;2.67;;;9.30;99.90;;;;;;5151158;28;20246;-75
2021/04/02 09:31:24;;;;;;;6.07;2.93;;;9.30;99.90;;;;;;5166255;28;20199;-73
2021/04/02 09:33:58;;;;;;;4.93;2.63;;;9.00;99.90;;;;;;5167034;28;20207;-72
2021/04/02 09:36:32;;;;;;;7.03;3.40;;;8.80;99.90;;;;;;5167633;28;20531;-74
2021/04/02 09:39:11;;;;;;;6.27;3.10;;;9.00;99.90;;;;;;5167545;28;20206;-75
2021/04/02 09:41:50;;;;;;;4.03;2.70;;;9.10;99.90;;;;;;5166228;28;20191;-78
2021/04/02 09:44:27;;;;;;;5.57;3.23;;;9.00;99.90;;;;;;5157897;28;20254;-72
2021/04/02 09:47:12;;;;;;;7.70;3.20;;;9.00;99.90;;;;;;5159541;28;20196;-71
2021/04/02 09:49:44;;;;;;;6.97;3.27;;;9.00;99.90;;;;;;5167119;28;20192;-75
2021/04/02 09:56:14;;;;;;;5.40;3.33;;;9.00;99.90;;;;;;5167713;28;20549;-73
2021/04/02 09:58:46;;;;;;;9.83;3.83;;;9.20;99.90;;;;;;5167174;28;20257;-72
2021/04/02 10:01:18;;;;;;;6.50;3.60;;;9.30;99.90;;;;;;5167166;28;20202;-74
2021/04/02 10:03:51;;;;;;;8.03;3.10;;;9.50;99.90;;;;;;5167071;28;20315;-70
2021/04/02 10:06:22;;;;;;;6.50;3.20;;;9.50;99.90;;;;;;5164860;28;20191;-79
2021/04/02 10:12:54;;;;;;;4.97;3.03;;;9.70;99.90;;;;;;5166839;28;20238;-73
2021/04/02 10:15:26;;;;;;;5.43;2.70;;;9.90;99.90;;;;;;5166437;28;20246;-70
2021/04/02 10:17:57;;;;;;;5.83;3.20;;;9.90;99.90;;;;;;5166350;28;20212;-70
2021/04/02 10:20:29;;;;;;;5.10;2.93;;;9.80;99.90;;;;;;5167495;28;20203;-71
2021/04/02 10:23:00;;;;;;;4.10;2.60;;;9.60;99.90;;;;;;5167614;28;20231;-71
2021/04/02 10:25:32;;;;;;;11.57;3.17;;;9.70;99.90;;;;;;5149875;28;20192;-69
2021/04/02 10:28:04;;;;;;;5.00;3.00;;;9.60;99.90;;;;;;5165400;28;20569;-70
2021/04/02 10:30:35;;;;;;;5.40;2.67;;;9.50;99.90;;;;;;5166308;28;20231;-70
2021/04/02 10:33:07;;;;;;;4.47;2.73;;;9.40;99.90;;;;;;5166647;28;20191;-69
2021/04/02 10:35:38;;;;;;;4.67;2.97;;;9.40;99.90;;;;;;5166633;28;20286;-69
2021/04/02 10:38:10;;;;;;;3.97;2.80;;;9.30;99.90;;;;;;5166593;28;20196;-70
2021/04/02 10:40:43;;;;;;;6.73;3.50;;;9.20;99.90;;;;;;5166956;28;20606;-72
2021/04/02 10:43:15;;;;;;;6.63;3.33;;;9.10;99.90;;;;;;5148996;28;20215;-70
2021/04/02 10:45:47;;;;;;;4.87;3.63;;;9.00;99.90;;;;;;5166790;28;20191;-71
2021/04/02 10:48:19;;;;;;;5.70;3.17;;;9.10;99.90;;;;;;5166682;28;20198;-71
2021/04/02 10:50:50;;;;;;;6.80;3.43;;;9.10;99.90;;;;;;5167281;28;20200;-76
2021/04/02 10:53:26;;;;;;;6.60;3.40;;;9.20;99.90;;;;;;5165733;28;20557;-65
2021/04/02 10:56:00;;;;;;;5.40;3.10;;;9.30;99.90;;;;;;5166665;28;20198;-66
2021/04/02 10:58:33;;;;;;;4.50;3.13;;;9.50;99.90;;;;;;5167837;28;20199;-77
2021/04/02 11:01:05;;;;;;;4.50;2.73;;;9.60;99.90;;;;;;5168713;28;20202;-70
2021/04/02 11:03:36;;;;;;;6.80;2.77;;;9.60;99.90;;;;;;5169663;28;20215;-70
2021/04/02 11:06:08;;;;;;;7.10;2.67;;;9.30;99.90;;;;;;5172995;28;20202;-73
2021/04/02 11:08:39;;;;;;;8.30;2.43;;;9.30;99.90;;;;;;5172525;28;20199;-72
2021/04/02 11:11:11;;;;;;;6.27;2.03;;;9.30;99.90;;;;;;5171822;28;20206;-72
2021/04/02 11:13:43;;;;;;;4.23;2.00;;;9.40;99.90;;;;;;5171834;28;20218;-70
2021/04/02 11:16:15;;;;;;;5.33;1.87;;;9.30;99.90;;;;;;5171835;28;20192;-72
2021/04/02 11:18:46;;;;;;;2.90;1.33;;;9.30;99.90;;;;;;5171694;28;20539;-70
2021/04/02 11:21:18;;;;;;;1.40;0.90;;;9.40;99.90;;;;;;5171542;28;20626;-72
2021/04/02 11:23:50;;;;;;;7.50;1.23;;;9.40;99.90;;;;;;5154127;28;20238;-81
2021/04/02 11:26:25;;;;;;;7.23;1.20;;;9.60;99.90;;;;;;5173853;28;20198;-69
2021/04/02 11:28:57;;;;;;;8.80;1.13;;;9.60;99.90;;;;;;5170461;28;20329;-74
2021/04/02 11:31:28;;;;;;;2.73;1.20;;;9.70;99.90;;;;;;5171359;28;20204;-73
2021/04/02 11:34:00;;;;;;;1.83;0.90;;;9.60;99.90;;;;;;5170602;28;20196;-70
2021/04/02 11:36:31;;;;;;;2.00;0.73;;;9.30;99.90;;;;;;5153485;28;20622;-72
2021/04/02 11:39:04;;;;;;;6.63;1.00;;;9.10;99.90;;;;;;5170360;28;20206;-75
2021/04/02 11:41:39;;;;;;;2.60;0.90;;;9.00;99.90;;;;;;5169465;28;20195;-76
2021/04/02 11:44:11;;;;;;;2.10;0.97;;;9.10;99.90;;;;;;5152353;28;20294;-72
2021/04/02 11:46:43;;;;;;;3.53;0.73;;;9.00;99.60;;;;;;5169938;28;20202;-72
2021/04/02 11:49:19;;;;;;;2.17;0.70;;;9.00;99.90;;;;;;5169373;28;20215;-70
2021/04/02 11:51:58;;;;;;;3.37;0.67;;;9.10;99.90;;;;;;5170192;28;20251;-73
2021/04/02 11:54:35;;;;;;;1.80;0.53;;;9.10;99.30;;;;;;5121275;28;20659;-71
2021/04/02 11:57:07;;;;;;;4.37;0.70;;;9.30;99.80;;;;;;5169452;28;20192;-68
2021/04/02 11:59:38;;;;;;;1.80;0.60;;;9.60;99.90;;;;;;5169393;28;20200;-74
2021/04/02 12:02:11;;;;;;;1.53;0.70;;;9.70;99.50;;;;;;5169252;28;20298;-70
2021/04/02 12:04:42;;;;;;;2.17;0.63;;;9.80;99.50;;;;;;5169112;28;20231;-72
2021/04/02 12:07:19;;;;;;;1.73;0.90;;;9.70;98.10;;;;;;5152245;28;20215;-74
2021/04/02 12:09:50;;;;;;;0.73;0.40;;;9.60;97.90;;;;;;5168900;28;20206;-71
2021/04/02 12:12:22;;;;;;;3.00;0.80;;;9.70;98.90;;;;;;5169298;28;20196;-71
2021/04/02 12:14:53;;;;;;;0.87;0.60;;;9.70;99.20;;;;;;5168432;28;20203;-72
2021/04/02 12:17:25;;;;;;;2.00;0.43;;;9.90;99.70;;;;;;5168698;28;20546;-71
2021/04/02 12:19:57;;;;;;;2.60;0.70;;;10.10;99.80;;;;;;5151682;28;20196;-72
2021/04/02 12:22:28;;;;;;;1.63;0.80;;;10.30;99.40;;;;;;5169082;28;20202;-74
2021/04/02 12:25:00;;;;;;;2.70;0.90;;;10.30;98.70;;;;;;5169263;28;20682;-75
2021/04/02 12:27:33;;;;;;;1.63;0.77;;;10.50;98.10;;;;;;5169109;28;20187;-74
2021/04/02 12:30:13;;;;;;;1.23;0.80;;;10.70;98.30;;;;;;5168798;28;20728;-72
2021/04/02 12:32:44;;;;;;;1.70;1.07;;;10.40;98.00;;;;;;5151807;28;20202;-72
2021/04/02 12:35:18;;;;;;;4.30;0.60;;;10.10;98.50;;;;;;5169179;28;20245;-69
2021/04/02 12:37:50;;;;;;;2.17;1.03;;;9.90;97.30;;;;;;5169413;28;20199;-71
2021/04/02 12:40:25;;;;;;;1.53;0.70;;;9.90;98.20;;;;;;5169090;28;20195;-72
2021/04/02 12:42:57;;;;;;;2.23;0.70;;;10.10;98.70;;;;;;5169125;28;20234;-73
2021/04/02 12:45:28;;;;;;;4.27;0.90;;;10.20;99.10;;;;;;5159537;28;20200;-71
2021/04/02 12:48:00;;;;;;;2.83;0.93;;;10.10;97.90;;;;;;5166961;28;20199;-72
2021/04/02 12:50:33;;;;;;;3.87;0.90;;;10.10;98.90;;;;;;5167593;28;20218;-71
2021/04/02 12:53:05;;;;;;;3.13;1.10;;;10.00;99.50;;;;;;5168140;28;20204;-73
2021/04/02 12:55:39;;;;;;;3.70;1.00;;;9.80;99.50;;;;;;5167885;28;20196;-73
2021/04/02 12:58:12;;;;;;;4.30;1.10;;;9.80;99.90;;;;;;5168022;28;20192;-74
2021/04/02 13:00:44;;;;;;;2.13;1.10;;;9.60;99.90;;;;;;5168278;28;20203;-74
2021/04/02 13:03:18;;;;;;;2.87;1.57;;;9.30;99.90;;;;;;5163519;28;20216;-73
2021/04/02 13:05:50;;;;;;;2.80;1.30;;;9.20;99.90;;;;;;5156341;28;20195;-73
2021/04/02 13:08:22;;;;;;;2.67;1.67;;;9.10;99.90;;;;;;5158322;28;20196;-73
2021/04/02 13:10:53;;;;;;;3.57;0.93;;;9.20;99.90;;;;;;5167413;28;20211;-73
2021/04/02 13:13:25;;;;;;;3.53;1.03;;;9.10;99.90;;;;;;5150324;28;20215;-72
2021/04/02 13:15:56;;;;;;;1.70;0.80;;;8.90;99.90;;;;;;5167225;28;20195;-73
2021/04/02 13:18:28;;;;;;;3.43;1.20;;;9.00;99.90;;;;;;5167809;28;20196;-71
2021/04/02 13:21:00;;;;;;;4.80;1.40;;;9.00;99.90;;;;;;5167615;28;20203;-74
2021/04/02 13:23:32;;;;;;;3.10;1.87;;;8.90;99.90;;;;;;5168525;28;20216;-71
2021/04/02 13:26:04;;;;;;;3.73;1.47;;;9.10;99.90;;;;;;5168382;28;20200;-73
2021/04/02 13:28:36;;;;;;;3.90;1.60;;;9.20;99.90;;;;;;5167934;28;20245;-72
2021/04/02 13:31:07;;;;;;;5.63;1.90;;;9.20;99.90;;;;;;5168496;28;20203;-72
2021/04/02 13:33:39;;;;;;;4.67;1.70;;;9.20;99.90;;;;;;5168928;28;20218;-71
2021/04/02 13:36:17;;;;;;;3.30;1.80;;;9.30;99.90;;;;;;5168196;28;20208;-71
2021/04/02 13:38:50;;;;;;;5.70;2.00;;;9.30;99.90;;;;;;5168391;28;20199;-72
2021/04/02 13:41:23;;;;;;;3.43;1.87;;;9.20;99.90;;;;;;5168474;28;20195;-71
2021/04/02 13:43:55;;;;;;;3.07;1.30;;;9.10;99.90;;;;;;5168780;28;20222;-73
2021/04/02 13:46:26;;;;;;;2.20;1.40;;;8.90;99.90;;;;;;5150598;28;20652;-71
2021/04/02 13:48:58;;;;;;;4.73;1.73;;;8.80;99.90;;;;;;5167575;28;20191;-71
2021/04/02 13:51:29;;;;;;;2.70;1.60;;;8.80;99.90;;;;;;5167460;28;20192;-70
2021/04/02 13:54:01;;;;;;;3.60;1.73;;;8.70;99.90;;;;;;5167082;28;20195;-70
2021/04/02 13:56:33;;;;;;;8.17;1.83;;;8.80;99.90;;;;;;5167066;28;20207;-73
2021/04/02 13:59:08;;;;;;;4.97;1.90;;;8.90;99.90;;;;;;5166675;28;20227;-70
2021/04/02 14:01:39;;;;;;;4.93;2.43;;;8.70;99.90;;;;;;5166670;28;20198;-70
2021/04/02 14:04:10;;;;;;;5.13;2.30;;;8.60;99.90;;;;;;5166697;28;20223;-71
2021/04/02 14:06:42;;;;;;;8.10;2.97;;;8.70;99.90;;;;;;5166245;28;20192;-70